createdAt,value
2022-11-08T00:01:02.478Z,100742.22
2022-11-08T00:03:32.794Z,100746.63
2022-11-08T00:06:17.650Z,100749.25
2022-11-08T00:08:59.864Z,100749.25
2022-11-08T00:11:42.313Z,100743.13
2022-11-08T00:14:12.183Z,100748.41
2022-11-08T00:16:41.933Z,100738.75
2022-11-08T00:19:11.678Z,100736.09
2022-11-08T00:21:44.045Z,100737.94
2022-11-08T00:24:14.021Z,100737.03
2022-11-08T00:26:43.753Z,100733.50
2022-11-08T00:29:13.506Z,100725.56
2022-11-08T00:31:43.264Z,100729.09
2022-11-08T00:34:13.195Z,100717.63
2022-11-08T00:36:45.578Z,100721.16
2022-11-08T00:39:15.485Z,100723.81
2022-11-08T00:41:45.252Z,100722.97
2022-11-08T00:44:15.571Z,100715.94
2022-11-08T00:46:45.345Z,100715.88
2022-11-08T00:49:15.431Z,100715.88
2022-11-08T00:51:48.094Z,100715.03
2022-11-08T00:54:19.424Z,100717.69
2022-11-08T00:56:50.024Z,100716.81
2022-11-08T00:59:21.422Z,100718.53
2022-11-08T01:01:51.588Z,100721.22
2022-11-08T01:04:22.454Z,100715.03
2022-11-08T01:06:54.814Z,100720.34
2022-11-08T01:09:24.585Z,100716.81
2022-11-08T01:11:54.398Z,100716.81
2022-11-08T01:14:24.149Z,100716.84
2022-11-08T01:16:53.906Z,100711.56
2022-11-08T01:19:23.629Z,100708.94
2022-11-08T01:21:55.970Z,100709.81
2022-11-08T01:24:25.735Z,100709.81
2022-11-08T01:26:55.456Z,100713.34
2022-11-08T01:29:25.198Z,100708.03
2022-11-08T01:31:54.943Z,100702.75
2022-11-08T01:34:24.679Z,100704.56
2022-11-08T01:36:57.021Z,100707.22
2022-11-08T01:39:26.734Z,100700.16
2022-11-08T01:41:56.483Z,100697.47
2022-11-08T01:44:26.202Z,100703.59
2022-11-08T01:46:55.966Z,100708.88
2022-11-08T01:49:43.715Z,100701.81
2022-11-08T01:52:38.372Z,100693.81
2022-11-08T01:55:15.061Z,100684.06
2022-11-08T01:57:50.227Z,100684.91
2022-11-08T02:00:21.298Z,100686.66
2022-11-08T02:02:57.556Z,100684.84
2022-11-08T02:05:30.017Z,100680.41
2022-11-08T02:08:05.959Z,100676.78
2022-11-08T02:10:39.107Z,100672.38
2022-11-08T02:13:14.896Z,100669.69
2022-11-08T02:15:45.474Z,100667.94
2022-11-08T02:18:16.817Z,100658.22
2022-11-08T02:20:57.391Z,100663.47
2022-11-08T02:23:32.080Z,100660.78
2022-11-08T02:26:05.165Z,100660.75
2022-11-08T02:28:41.406Z,100648.41
2022-11-08T02:31:12.425Z,100645.78
2022-11-08T02:33:43.159Z,100649.25
2022-11-08T02:36:15.780Z,100650.13
2022-11-08T02:38:48.919Z,100645.69
2022-11-08T02:41:21.313Z,100635.94
2022-11-08T02:43:51.133Z,100630.56
2022-11-08T02:46:21.323Z,100636.69
2022-11-08T02:48:51.440Z,100629.59
2022-11-08T02:51:21.188Z,100634.00
2022-11-08T02:53:50.996Z,100637.44
2022-11-08T02:56:23.529Z,100633.81
2022-11-08T02:58:53.325Z,100632.00
2022-11-08T03:01:24.345Z,100640.75
2022-11-08T03:03:54.175Z,100635.41
2022-11-08T03:06:23.906Z,100642.41
2022-11-08T03:08:53.637Z,100637.97
2022-11-08T03:11:26.119Z,100642.34
2022-11-08T03:13:55.871Z,100640.56
2022-11-08T03:16:25.610Z,100643.19
2022-11-08T03:18:55.348Z,100649.28
2022-11-08T03:21:25.098Z,100641.31
2022-11-08T03:23:54.812Z,100644.75
2022-11-08T03:26:27.138Z,100644.69
2022-11-08T03:28:56.859Z,100641.13
2022-11-08T03:31:26.722Z,100645.47
2022-11-08T03:33:56.436Z,100634.91
2022-11-08T03:36:26.576Z,100633.09
2022-11-08T03:38:56.293Z,100633.94
2022-11-08T03:41:28.839Z,100632.97
2022-11-08T03:43:58.591Z,100627.66
2022-11-08T03:46:28.364Z,100625.88
2022-11-08T03:48:58.101Z,100619.72
2022-11-08T03:51:27.880Z,100619.69
2022-11-08T03:53:57.606Z,100621.44
2022-11-08T03:56:30.014Z,100612.59
2022-11-08T03:58:59.813Z,100610.78
2022-11-08T04:01:29.626Z,100609.84
2022-11-08T04:03:59.481Z,100606.28
2022-11-08T04:06:29.221Z,100600.94
2022-11-08T04:08:58.971Z,100597.38
2022-11-08T04:11:43.692Z,100592.94
2022-11-08T04:14:26.353Z,100589.41
2022-11-08T04:16:56.066Z,100586.72
2022-11-08T04:19:50.207Z,100591.09
2022-11-08T04:22:19.962Z,100586.72
2022-11-08T04:24:49.722Z,100582.28
2022-11-08T04:27:22.089Z,100586.72
2022-11-08T04:29:51.818Z,100588.47
2022-11-08T04:32:21.539Z,100581.38
2022-11-08T04:34:51.293Z,100589.31
2022-11-08T04:37:21.026Z,100574.31
2022-11-08T04:39:50.785Z,100568.97
2022-11-08T04:42:23.158Z,100576.88
2022-11-08T04:44:52.885Z,100579.47
2022-11-08T04:47:22.648Z,100570.63
2022-11-08T04:49:52.357Z,100561.72
2022-11-08T04:52:22.076Z,100562.59
2022-11-08T04:54:51.874Z,100552.88
2022-11-08T04:57:24.349Z,100556.38
2022-11-08T04:59:54.083Z,100558.94
2022-11-08T05:02:24.045Z,100542.22
2022-11-08T05:04:53.893Z,100546.56
2022-11-08T05:07:23.739Z,100551.00
2022-11-08T05:09:53.503Z,100543.09
2022-11-08T05:12:25.994Z,100532.56
2022-11-08T05:14:55.779Z,100538.69
2022-11-08T05:17:25.531Z,100543.16
2022-11-08T05:20:07.690Z,100538.75
2022-11-08T05:22:49.864Z,100539.63
2022-11-08T05:25:19.700Z,100542.28
2022-11-08T05:27:52.051Z,100540.56
2022-11-08T05:30:21.825Z,100527.38
2022-11-08T05:32:53.969Z,100536.16
2022-11-08T05:35:23.767Z,100523.81
2022-11-08T05:37:53.570Z,100525.63
2022-11-08T05:40:23.547Z,100515.91
2022-11-08T05:42:56.124Z,100501.78
2022-11-08T05:45:25.902Z,100497.38
2022-11-08T05:47:56.050Z,100486.78
2022-11-08T05:50:25.842Z,100487.63
2022-11-08T05:52:57.237Z,100475.31
2022-11-08T05:55:27.011Z,100470.91
2022-11-08T05:57:59.410Z,100469.16
2022-11-08T06:00:29.601Z,100469.16
2022-11-08T06:02:59.600Z,100464.75
2022-11-08T06:05:29.386Z,100469.13
2022-11-08T06:07:59.197Z,100460.31
2022-11-08T06:10:29.302Z,100453.28
2022-11-08T06:13:04.188Z,100450.66
2022-11-08T06:15:33.942Z,100449.75
2022-11-08T06:18:05.262Z,100443.56
2022-11-08T06:20:35.037Z,100450.59
2022-11-08T06:23:04.782Z,100440.03
2022-11-08T06:25:34.573Z,100434.78
2022-11-08T06:28:07.261Z,100430.38
2022-11-08T06:30:37.131Z,100439.13
2022-11-08T06:33:07.160Z,100433.84
2022-11-08T06:35:37.173Z,100433.84
2022-11-08T06:38:09.442Z,100440.00
2022-11-08T06:40:40.652Z,100436.47
2022-11-08T06:43:18.174Z,100435.59
2022-11-08T06:45:49.978Z,100432.03
2022-11-08T06:48:19.988Z,100438.19
2022-11-08T06:50:49.758Z,100435.56
2022-11-08T06:53:19.923Z,100432.03
2022-11-08T06:55:50.079Z,100432.00
2022-11-08T06:58:22.408Z,100431.09
2022-11-08T07:00:52.187Z,100417.94
2022-11-08T07:03:22.034Z,100412.66
2022-11-08T07:05:52.268Z,100411.78
2022-11-08T07:08:24.249Z,100407.34
2022-11-08T07:10:54.722Z,100403.81
2022-11-08T07:13:27.173Z,100407.34
2022-11-08T07:16:00.551Z,100399.44
2022-11-08T07:18:31.135Z,100400.31
2022-11-08T07:21:05.155Z,100399.44
2022-11-08T07:23:35.178Z,100395.97
2022-11-08T07:26:08.537Z,100394.16
2022-11-08T07:28:40.865Z,100396.78
2022-11-08T07:31:11.961Z,100397.66
2022-11-08T07:33:41.760Z,100402.13
2022-11-08T07:36:11.694Z,100397.72
2022-11-08T07:38:41.455Z,100397.78
2022-11-08T07:41:12.765Z,100399.53
2022-11-08T07:43:45.112Z,100388.09
2022-11-08T07:46:14.841Z,100373.22
2022-11-08T07:48:44.598Z,100384.63
2022-11-08T07:51:14.402Z,100392.59
2022-11-08T07:53:46.082Z,100383.81
2022-11-08T07:56:16.036Z,100384.75
2022-11-08T07:58:48.418Z,100379.47
2022-11-08T08:01:18.183Z,100380.41
2022-11-08T08:03:48.262Z,100383.13
2022-11-08T08:06:18.092Z,100382.25
2022-11-08T08:08:47.824Z,100369.16
2022-11-08T08:11:17.607Z,100375.31
2022-11-08T08:13:49.999Z,100362.19
2022-11-08T08:16:19.794Z,100341.13
2022-11-08T08:18:56.152Z,100349.03
2022-11-08T08:21:26.890Z,100346.50
2022-11-08T08:23:56.625Z,100345.66
2022-11-08T08:26:26.450Z,100337.78
2022-11-08T08:28:58.826Z,100341.34
2022-11-08T08:31:28.634Z,100337.00
2022-11-08T08:33:58.912Z,100330.84
2022-11-08T08:36:28.701Z,100329.19
2022-11-08T08:38:58.453Z,100325.72
2022-11-08T08:41:28.392Z,100326.69
2022-11-08T08:44:01.310Z,100327.63
2022-11-08T08:46:31.265Z,100337.38
2022-11-08T08:49:01.025Z,100339.19
2022-11-08T08:51:30.743Z,100339.22
2022-11-08T08:54:01.694Z,100338.44
2022-11-08T08:56:31.493Z,100344.63
2022-11-08T09:01:53.970Z,100346.47
2022-11-08T09:04:23.725Z,100338.59
2022-11-08T09:06:53.698Z,100345.69
2022-11-08T09:09:24.008Z,100344.00
2022-11-08T09:11:53.729Z,100334.41
2022-11-08T09:14:26.110Z,100342.38
2022-11-08T09:16:55.842Z,100336.28
2022-11-08T09:19:25.587Z,100325.75
2022-11-08T09:21:55.488Z,100339.00
2022-11-08T09:24:25.492Z,100331.13
2022-11-08T09:26:55.247Z,100325.06
2022-11-08T09:29:27.740Z,100318.06
2022-11-08T09:31:58.857Z,100326.03
2022-11-08T09:34:28.867Z,100318.16
2022-11-08T09:36:58.750Z,100325.25
2022-11-08T09:39:28.706Z,100322.66
2022-11-08T09:42:14.794Z,100316.56
2022-11-08T09:45:17.161Z,100319.25
2022-11-08T09:47:54.089Z,100320.16
2022-11-08T09:50:29.638Z,100309.56
2022-11-08T09:53:09.885Z,100297.28
2022-11-08T09:55:43.307Z,100294.66
2022-11-08T09:58:26.827Z,100297.38
2022-11-08T10:00:56.882Z,100302.69
2022-11-08T10:03:29.675Z,100306.25
2022-11-08T10:06:31.967Z,100302.75
2022-11-08T10:09:13.490Z,100309.84
2022-11-08T10:11:57.062Z,100303.69
2022-11-08T10:14:49.050Z,100291.38
2022-11-08T10:17:58.819Z,100294.91
2022-11-08T10:20:39.322Z,100292.28
2022-11-08T10:23:21.861Z,100284.34
2022-11-08T10:25:57.114Z,100294.91
2022-11-08T10:28:33.869Z,100300.19
2022-11-08T10:31:04.775Z,100306.41
2022-11-08T10:33:40.433Z,100317.88
2022-11-08T10:36:18.041Z,100297.63
2022-11-08T10:38:54.158Z,100289.69
2022-11-08T10:41:28.922Z,100285.28
2022-11-08T10:44:07.225Z,100295.88
2022-11-08T10:46:44.621Z,100295.88
2022-11-08T10:49:18.718Z,100296.75
2022-11-08T10:51:54.639Z,100290.59
2022-11-08T10:54:43.582Z,100283.53
2022-11-08T10:57:15.273Z,100284.41
2022-11-08T10:59:45.890Z,100283.50
2022-11-08T11:02:27.318Z,100285.28
2022-11-08T11:05:16.265Z,100280.91
2022-11-08T11:08:02.133Z,100281.78
2022-11-08T11:10:34.455Z,100273.84
2022-11-08T11:13:08.188Z,100275.63
2022-11-08T11:15:40.191Z,100275.63
2022-11-08T11:18:24.653Z,100281.84
2022-11-08T11:21:03.231Z,100284.50
2022-11-08T11:23:42.222Z,100257.22
2022-11-08T11:26:21.731Z,100236.97
2022-11-08T11:29:18.024Z,100207.03
2022-11-08T11:31:50.888Z,100232.63
2022-11-08T11:34:35.428Z,100244.13
2022-11-08T11:37:15.557Z,100257.41
2022-11-08T11:39:56.740Z,100264.47
2022-11-08T11:42:44.949Z,100254.78
2022-11-08T11:45:20.971Z,100260.13
2022-11-08T11:47:54.646Z,100267.16
2022-11-08T11:50:32.027Z,100266.34
2022-11-08T11:53:05.251Z,100244.28
2022-11-08T11:55:50.745Z,100245.22
2022-11-08T11:58:35.120Z,100244.34
2022-11-08T12:01:14.809Z,100249.69
2022-11-08T12:04:16.856Z,100235.63
2022-11-08T12:07:00.770Z,100248.03
2022-11-08T12:09:46.954Z,100250.72
2022-11-08T12:12:34.642Z,100236.63
2022-11-08T12:15:13.622Z,100240.16
2022-11-08T12:18:42.253Z,100225.19
2022-11-08T12:21:16.503Z,100230.50
2022-11-08T12:24:22.295Z,100224.38
2022-11-08T12:27:00.405Z,100223.47
2022-11-08T12:29:38.981Z,100227.88
2022-11-08T12:32:42.103Z,100242.94
2022-11-08T12:35:26.233Z,100236.78
2022-11-08T12:38:08.946Z,100237.66
2022-11-08T12:40:49.066Z,100225.31
2022-11-08T12:43:29.997Z,100232.41
2022-11-08T12:46:13.049Z,100234.19
2022-11-08T12:49:08.814Z,100229.75
2022-11-08T12:51:52.647Z,100229.78
2022-11-08T12:54:29.721Z,100228.91
2022-11-08T12:57:04.349Z,100233.34
2022-11-08T12:59:39.614Z,100240.41
2022-11-08T13:02:18.670Z,100236.91
2022-11-08T13:04:58.466Z,100233.38
2022-11-08T13:07:37.662Z,100231.59
2022-11-08T13:10:14.977Z,100232.47
2022-11-08T13:13:06.558Z,100233.34
2022-11-08T13:15:36.447Z,100230.69
2022-11-08T13:18:37.022Z,100220.13
2022-11-08T13:21:38.638Z,100228.06
2022-11-08T13:24:45.420Z,100222.78
2022-11-08T13:27:42.981Z,100216.63
2022-11-08T13:30:48.559Z,100226.31
2022-11-08T13:33:27.892Z,100226.31
2022-11-08T13:36:14.578Z,100221.91
2022-11-08T13:38:52.329Z,100228.09
2022-11-08T13:41:24.466Z,100231.63
2022-11-08T13:43:57.243Z,100234.25
2022-11-08T13:46:49.006Z,100221.91
2022-11-08T13:49:27.871Z,100223.66
2022-11-08T13:52:27.398Z,100229.81
2022-11-08T13:54:59.780Z,100229.81
2022-11-08T13:57:58.914Z,100232.47
2022-11-08T14:00:46.790Z,100232.44
2022-11-08T14:03:55.678Z,100229.81
2022-11-08T14:06:32.938Z,100232.44
2022-11-08T14:09:12.218Z,100232.44
2022-11-08T14:11:59.154Z,100220.94
2022-11-08T14:14:45.122Z,100235.94
2022-11-08T14:17:36.984Z,100230.63
2022-11-08T14:20:26.147Z,100235.91
2022-11-08T14:22:55.958Z,100237.66
2022-11-08T14:25:31.678Z,100239.44
2022-11-08T14:28:04.520Z,100231.47
2022-11-08T14:30:35.018Z,100224.41
2022-11-08T14:33:19.382Z,100238.50
2022-11-08T14:35:56.557Z,100225.25
2022-11-08T14:38:26.882Z,100228.78
2022-11-08T14:41:00.376Z,100224.34
2022-11-08T14:43:34.185Z,100229.66
2022-11-08T14:46:14.287Z,100225.25
2022-11-08T14:48:54.285Z,100226.13
2022-11-08T14:51:24.649Z,100230.50
2022-11-08T14:53:56.742Z,100226.13
2022-11-08T14:56:30.412Z,100226.13
2022-11-08T14:59:09.133Z,100228.75
2022-11-08T15:01:39.211Z,100224.31
2022-11-08T15:04:16.208Z,100235.78
2022-11-08T15:06:48.283Z,100220.78
2022-11-08T15:09:23.836Z,100231.38
2022-11-08T15:11:57.092Z,100237.50
2022-11-08T15:14:33.447Z,100224.28
2022-11-08T15:17:03.743Z,100233.97
2022-11-08T15:19:38.857Z,100228.69
2022-11-08T15:22:27.646Z,100232.22
2022-11-08T15:25:04.918Z,100233.94
2022-11-08T15:27:34.850Z,100235.72
2022-11-08T15:30:11.880Z,100230.41
2022-11-08T15:32:42.943Z,100234.81
2022-11-08T15:35:25.181Z,100233.94
2022-11-08T15:38:01.810Z,100231.22
2022-11-08T15:40:33.473Z,100231.22
2022-11-08T15:43:04.787Z,100223.28
2022-11-08T15:45:37.547Z,100225.94
2022-11-08T15:48:16.638Z,100224.19
2022-11-08T15:50:46.643Z,100202.09
2022-11-08T15:53:16.449Z,100211.78
2022-11-08T15:55:51.025Z,100224.13
2022-11-08T15:58:28.669Z,100218.81
2022-11-08T16:01:04.042Z,100210.88
2022-11-08T16:03:34.905Z,100209.09
2022-11-08T16:06:04.771Z,100198.50
2022-11-08T16:08:34.517Z,100203.78
2022-11-08T16:11:04.315Z,100206.44
2022-11-08T16:13:37.206Z,100214.31
2022-11-08T16:16:14.497Z,100207.22
2022-11-08T16:18:45.152Z,100211.63
2022-11-08T16:21:16.509Z,100218.66
2022-11-08T16:23:46.256Z,100210.69
2022-11-08T16:26:20.786Z,100224.78
2022-11-08T16:28:50.553Z,100218.59
2022-11-08T16:31:23.270Z,100218.59
2022-11-08T16:33:54.210Z,100215.91
2022-11-08T16:36:25.797Z,100228.25
2022-11-08T16:38:57.380Z,100222.91
2022-11-08T16:41:28.125Z,100222.91
2022-11-08T16:43:57.944Z,100222.88
2022-11-08T16:46:31.639Z,100220.19
2022-11-08T16:49:02.223Z,100225.44
2022-11-08T16:51:31.976Z,100224.56
2022-11-08T16:54:02.862Z,100221.00
2022-11-08T16:56:33.866Z,100220.13
2022-11-08T16:59:03.590Z,100219.19
2022-11-08T17:01:38.316Z,100217.44
2022-11-08T17:04:08.111Z,100213.88
2022-11-08T17:06:37.992Z,100212.97
2022-11-08T17:09:07.939Z,100209.47
2022-11-08T17:11:38.670Z,100218.25
2022-11-08T17:14:08.517Z,100210.28
2022-11-08T17:16:40.937Z,100211.13
2022-11-08T17:19:11.352Z,100195.25
2022-11-08T17:21:45.748Z,100197.91
2022-11-08T17:24:21.214Z,100201.41
2022-11-08T17:26:51.520Z,100209.31
2022-11-08T17:29:21.280Z,100203.13
2022-11-08T17:31:53.719Z,100193.47
2022-11-08T17:34:23.470Z,100196.13
2022-11-08T17:36:53.930Z,100194.31
2022-11-08T17:39:23.671Z,100202.22
2022-11-08T17:41:53.443Z,100198.69
2022-11-08T17:44:23.209Z,100197.75
2022-11-08T17:46:55.816Z,100204.81
2022-11-08T17:49:25.592Z,100209.19
2022-11-08T17:51:55.329Z,100207.38
2022-11-08T17:54:25.092Z,100213.56
2022-11-08T17:56:54.805Z,100202.09
2022-11-08T17:59:25.813Z,100206.44
2022-11-08T18:01:59.448Z,100216.16
2022-11-08T18:04:29.567Z,100217.00
2022-11-08T18:06:59.778Z,100208.16
2022-11-08T18:09:30.306Z,100206.38
2022-11-08T18:12:00.110Z,100203.72
2022-11-08T18:14:30.082Z,100213.41
2022-11-08T18:17:02.462Z,100206.38
2022-11-08T18:19:32.340Z,100205.47
2022-11-08T18:22:04.817Z,100208.13
2022-11-08T18:24:34.718Z,100218.69
2022-11-08T18:27:04.487Z,100216.06
2022-11-08T18:29:35.422Z,100216.94
2022-11-08T18:32:08.458Z,100220.47
2022-11-08T18:34:38.208Z,100202.84
2022-11-08T18:37:08.001Z,100201.09
2022-11-08T18:39:37.770Z,100201.97
2022-11-08T18:42:07.661Z,100209.00
2022-11-08T18:44:37.401Z,100201.97
2022-11-08T18:47:09.808Z,100204.59
2022-11-08T18:49:40.746Z,100202.84
2022-11-08T18:52:10.614Z,100199.31
2022-11-08T18:54:40.369Z,100187.00
2022-11-08T18:57:10.078Z,100199.31
2022-11-08T18:59:39.814Z,100195.81
2022-11-08T19:02:13.517Z,100201.94
2022-11-08T19:04:43.442Z,100207.22
2022-11-08T19:07:13.200Z,100201.06
2022-11-08T19:09:42.929Z,100199.28
2022-11-08T19:12:12.713Z,100195.78
2022-11-08T19:14:42.428Z,100199.31
2022-11-08T19:17:16.580Z,100201.09
2022-11-08T19:19:46.997Z,100191.38
2022-11-08T19:22:16.846Z,100190.50
2022-11-08T19:24:46.599Z,100189.59
2022-11-08T19:27:16.329Z,100192.25
2022-11-08T19:29:46.086Z,100201.03
2022-11-08T19:32:18.609Z,100200.19
2022-11-08T19:34:50.071Z,100198.41
2022-11-08T19:37:19.834Z,100197.53
2022-11-08T19:39:49.620Z,100201.94
2022-11-08T19:42:19.434Z,100194.88
2022-11-08T19:44:49.203Z,100197.53
2022-11-08T19:47:21.561Z,100187.81
2022-11-08T19:49:51.311Z,100187.81
2022-11-08T19:52:21.072Z,100188.72
2022-11-08T19:54:51.110Z,100187.84
2022-11-08T19:57:20.883Z,100185.25
2022-11-08T19:59:51.326Z,100187.84
2022-11-08T20:02:23.774Z,100189.63
2022-11-08T20:04:53.603Z,100194.88
2022-11-08T20:07:23.387Z,100189.63
2022-11-08T20:09:53.166Z,100186.16
2022-11-08T20:12:22.938Z,100188.78
2022-11-08T20:14:52.940Z,100183.50
2022-11-08T20:17:25.309Z,100192.34
2022-11-08T20:19:55.764Z,100194.97
2022-11-08T20:22:25.654Z,100193.22
2022-11-08T20:24:55.499Z,100196.75
2022-11-08T20:27:25.285Z,100185.31
2022-11-08T20:29:55.023Z,100193.25
2022-11-08T20:32:27.448Z,100204.69
2022-11-08T20:34:58.669Z,100201.16
2022-11-08T20:37:28.694Z,100208.22
2022-11-08T20:39:58.475Z,100202.09
2022-11-08T20:42:28.314Z,100202.09
2022-11-08T20:44:58.140Z,100210.88
2022-11-08T20:47:30.536Z,100217.09
2022-11-08T20:50:01.116Z,100199.47
2022-11-08T20:52:31.228Z,100206.53
2022-11-08T20:55:00.986Z,100209.22
2022-11-08T20:57:30.750Z,100213.63
2022-11-08T21:00:12.401Z,100213.66
2022-11-08T21:02:45.817Z,100221.59
2022-11-08T21:05:15.689Z,100227.75
2022-11-08T21:10:42.984Z,100249.00
2022-11-08T21:13:13.391Z,100276.28
2022-11-08T21:15:47.255Z,100305.41
2022-11-08T21:18:20.690Z,100310.63
2022-11-08T21:20:51.484Z,100309.66
2022-11-08T21:23:22.630Z,100310.50
2022-11-08T21:25:54.116Z,100310.41
2022-11-08T21:28:23.922Z,100301.53
2022-11-08T21:30:53.710Z,100291.78
2022-11-08T21:33:26.590Z,100277.63
2022-11-08T21:35:58.542Z,100287.28
2022-11-08T21:38:31.233Z,100271.44
2022-11-08T21:41:05.620Z,100267.06
2022-11-08T21:43:38.481Z,100254.69
2022-11-08T21:46:18.981Z,100260.81
2022-11-08T21:48:56.383Z,100252.03
2022-11-08T21:51:26.906Z,100272.19
2022-11-08T21:53:57.434Z,100265.09
2022-11-08T21:56:28.737Z,100269.41
2022-11-08T21:58:58.534Z,100262.34
2022-11-08T22:01:30.494Z,100271.06
2022-11-08T22:04:03.422Z,100269.28
2022-11-08T22:06:33.410Z,100260.41
2022-11-08T22:09:03.263Z,100251.59
2022-11-08T22:11:33.256Z,100263.88
2022-11-08T22:14:03.080Z,100259.47
2022-11-08T22:16:32.877Z,100257.69
2022-11-08T22:19:06.185Z,100257.66
2022-11-08T22:21:43.478Z,100252.34
2022-11-08T22:24:17.275Z,100251.47
2022-11-08T22:26:48.351Z,100251.47
2022-11-08T22:29:19.298Z,100253.19
2022-11-08T22:31:49.084Z,100251.44
2022-11-08T22:34:21.882Z,100256.69
2022-11-08T22:36:51.940Z,100257.53
2022-11-08T22:39:23.265Z,100265.44
2022-11-08T22:41:56.139Z,100273.34
2022-11-08T22:44:26.022Z,100254.88
2022-11-08T22:46:55.824Z,100253.13
2022-11-08T22:49:28.384Z,100252.19
2022-11-08T22:51:59.362Z,100251.31
2022-11-08T22:54:29.541Z,100244.28
2022-11-08T22:56:59.352Z,100250.44
2022-11-08T22:59:29.183Z,100251.31
2022-11-08T23:01:58.969Z,100257.50
2022-11-08T23:04:31.351Z,100242.56
2022-11-08T23:07:01.198Z,100248.72
2022-11-08T23:09:31.023Z,100257.50
2022-11-08T23:12:13.206Z,100254.00
2022-11-08T23:14:55.393Z,100247.84
2022-11-08T23:17:25.190Z,100249.56
2022-11-08T23:20:09.947Z,100253.13
2022-11-08T23:22:52.129Z,100255.75
2022-11-08T23:25:21.897Z,100254.03
2022-11-08T23:28:04.097Z,100262.81
2022-11-08T23:30:46.291Z,100256.69
2022-11-08T23:33:16.054Z,100251.38
2022-11-08T23:36:00.635Z,100247.88
2022-11-08T23:38:30.379Z,100251.38
2022-11-08T23:41:14.481Z,100245.19
2022-11-08T23:43:56.626Z,100242.50
2022-11-08T23:46:26.406Z,100237.25
2022-11-08T23:48:56.163Z,100242.47
2022-11-08T23:51:28.503Z,100249.50
2022-11-08T23:53:58.549Z,100246.84
2022-11-08T23:56:30.041Z,100252.13
2022-11-08T23:59:02.189Z,100252.13
